Weather at Valencia Airport

Public forecast

Using degrees Celsius for public forecast. Weather courtesy of forecast.io.

Current aviation weather report (METAR) for Valencia Airport

Report is more than 6 hours old.

2022/11/14 15:30 (retrieved 2 years ago)

LEVC 141530Z 22008KT 190V250 9999 FEW030 22/12 Q1016 NOSIG

Aviation forecast (TAF) for Valencia Airport

Forecast is more than 12 hours old.

2023/02/22 18:27 (retrieved 1 year ago)

TAF TAF LEVC 221700Z 2218/2318 VRB04KT 9999 SCT010 TX18/2312Z TN07/2306Z TEMPO 2218/2312 BKN010 PROB40 TEMPO 2220/2307 3000 BR BKN005 PROB30 TEMPO 2300/2307 0800 FG VV001 BECMG 2311/2313 09010KT